Time;durP1;ratioP1;P1;durP2;ratioP2;P2;SDS_P1;SDS_P2;PMS_P1;PMS_P2;Temp;Humidity;BMP_temperature;BMP_pressure;BME280_temperature;BME280_humidity;BME280_pressure;Samples;Min_cycle;Max_cycle;Signal;HPM_P1;HPM_P2
2021/08/31 00:01:29;;;;;;;17.77;8.63;;;;;;;13.06;100.00;101773.38;5056606;28;19931;-71
2021/08/31 00:03:54;;;;;;;20.90;9.13;;;;;;;13.00;100.00;101779.31;5074008;28;20369;-71
2021/08/31 00:06:20;;;;;;;13.87;7.73;;;;;;;13.00;100.00;101778.50;5039610;28;20097;-71
2021/08/31 00:08:45;;;;;;;17.63;9.10;;;;;;;12.98;100.00;101777.78;5073203;28;20028;-71
2021/08/31 00:11:10;;;;;;;15.27;7.90;;;;;;;12.91;100.00;101774.88;5074363;28;20036;-71
2021/08/31 00:13:35;;;;;;;16.60;7.93;;;;;;;12.85;100.00;101775.47;5052453;28;20033;-71
2021/08/31 00:16:01;;;;;;;15.90;9.20;;;;;;;12.86;100.00;101769.97;5070508;28;20477;-71
2021/08/31 00:18:26;;;;;;;13.33;8.23;;;;;;;12.82;100.00;101771.28;5053506;28;20757;-71
2021/08/31 00:20:51;;;;;;;19.43;9.90;;;;;;;12.78;100.00;101767.22;5053260;28;20040;-71
2021/08/31 00:23:17;;;;;;;15.83;9.10;;;;;;;12.71;100.00;101767.97;5070749;28;20105;-71
2021/08/31 00:25:42;;;;;;;17.67;9.20;;;;;;;12.72;100.00;101759.78;5070290;28;20040;-71
2021/08/31 00:28:08;;;;;;;18.33;10.27;;;;;;;12.76;100.00;101752.28;5053220;28;20036;-71
2021/08/31 00:30:33;;;;;;;18.37;8.90;;;;;;;12.80;100.00;101756.34;5069491;28;20055;-71
2021/08/31 00:32:58;;;;;;;16.93;9.07;;;;;;;12.81;100.00;101756.19;5053168;28;20044;-71
2021/08/31 00:35:24;;;;;;;25.40;8.77;;;;;;;12.87;100.00;101765.44;5069419;28;20028;-71
2021/08/31 00:37:50;;;;;;;15.40;8.53;;;;;;;12.87;100.00;101768.13;5070406;28;20036;-71
2021/08/31 00:40:16;;;;;;;13.93;8.65;;;;;;;12.87;100.00;101765.44;5069381;28;20610;-71
2021/08/31 00:42:41;;;;;;;14.43;8.07;;;;;;;12.86;100.00;101764.63;5052854;28;20047;-71
2021/08/31 00:45:07;;;;;;;13.73;8.10;;;;;;;12.89;100.00;101760.78;5052554;28;20071;-71
2021/08/31 00:47:32;;;;;;;16.48;8.77;;;;;;;12.92;100.00;101767.69;5070014;28;20032;-71
2021/08/31 00:49:57;;;;;;;17.17;7.60;;;;;;;12.92;100.00;101765.84;5070502;28;20086;-71
2021/08/31 00:52:23;;;;;;;12.93;8.47;;;;;;;12.84;100.00;101761.25;5069596;28;20032;-71
2021/08/31 00:54:48;;;;;;;16.67;9.23;;;;;;;12.79;100.00;101765.38;5069163;28;20036;-71
2021/08/31 00:57:15;;;;;;;19.23;9.53;;;;;;;12.80;100.00;101773.25;5069549;28;20072;-71
2021/08/31 00:59:40;;;;;;;17.40;9.52;;;;;;;12.76;100.00;101766.53;5070283;28;20036;-71
2021/08/31 01:02:06;;;;;;;19.70;9.17;;;;;;;12.78;100.00;101780.63;5069853;28;20339;-71
2021/08/31 01:04:32;;;;;;;18.23;7.53;;;;;;;12.72;100.00;101772.34;5070091;28;20726;-71
2021/08/31 01:06:59;;;;;;;31.23;9.27;;;;;;;12.73;100.00;101779.38;5069686;28;20093;-71
2021/08/31 01:09:25;;;;;;;14.60;7.60;;;;;;;12.75;100.00;101772.88;5069140;28;20079;-71
2021/08/31 01:11:52;;;;;;;17.42;8.70;;;;;;;12.72;100.00;101783.06;5069398;28;20113;-71
2021/08/31 01:14:19;;;;;;;12.15;7.57;;;;;;;12.75;100.00;101782.75;5069824;28;20111;-71
2021/08/31 01:16:46;;;;;;;12.80;6.40;;;;;;;12.77;100.00;101784.28;5068130;28;20089;-71
2021/08/31 01:19:11;;;;;;;12.23;7.57;;;;;;;12.83;100.00;101780.16;5069563;28;20029;-71
2021/08/31 01:21:37;;;;;;;11.73;7.33;;;;;;;12.76;100.00;101787.09;5052087;28;20111;-71
2021/08/31 01:24:03;;;;;;;13.77;7.60;;;;;;;12.76;100.00;101787.97;5051429;28;20036;-71
2021/08/31 01:26:29;;;;;;;13.25;7.32;;;;;;;12.70;100.00;101787.72;5069335;28;20028;-71
2021/08/31 01:28:54;;;;;;;12.00;7.40;;;;;;;12.70;100.00;101793.09;5051777;28;20458;-71
2021/08/31 01:31:19;;;;;;;13.63;7.30;;;;;;;12.67;100.00;101792.41;5069675;28;20437;-71
2021/08/31 01:33:45;;;;;;;19.37;7.63;;;;;;;12.62;100.00;101793.84;5069279;28;20601;-71
2021/08/31 01:36:25;;;;;;;15.93;9.10;;;;;;;12.66;100.00;101798.72;5068955;28;20044;-71
2021/08/31 01:38:56;;;;;;;13.10;7.20;;;;;;;12.66;100.00;101788.00;5069233;28;20036;-71
2021/08/31 01:41:22;;;;;;;13.20;7.05;;;;;;;12.63;100.00;101791.00;5069401;28;20032;-71
2021/08/31 01:43:48;;;;;;;13.00;7.90;;;;;;;12.70;100.00;101793.09;5069071;28;20030;-71
2021/08/31 01:46:13;;;;;;;14.10;8.10;;;;;;;12.71;100.00;101805.47;5051322;28;20040;-71
2021/08/31 01:48:39;;;;;;;18.13;8.40;;;;;;;12.71;100.00;101794.75;5068851;28;20036;-71
2021/08/31 01:51:08;;;;;;;13.73;7.32;;;;;;;12.61;100.00;101801.03;5068671;28;20029;-71
2021/08/31 01:53:34;;;;;;;14.57;7.40;;;;;;;12.59;100.00;101796.81;5051875;28;20040;-71
2021/08/31 01:55:59;;;;;;;;;;;;;;;12.64;100.00;101805.22;5068840;28;20093;-71
2021/08/31 01:58:25;;;;;;;;;;;;;;;12.66;100.00;101801.41;5069530;28;20325;-71
2021/08/31 02:00:50;;;;;;;13.63;8.27;;;;;;;12.58;100.00;101804.00;5068761;28;20345;-71
2021/08/31 02:03:16;;;;;;;15.27;8.53;;;;;;;12.61;100.00;101805.53;5067936;28;20067;-71
2021/08/31 02:05:41;;;;;;;15.53;7.40;;;;;;;12.52;100.00;101803.75;5050850;28;20304;-71
2021/08/31 02:08:06;;;;;;;15.60;8.87;;;;;;;12.41;100.00;101804.81;5068817;28;20044;-71
2021/08/31 02:10:32;;;;;;;19.57;8.90;;;;;;;12.39;100.00;101804.97;5068571;28;20070;-71
2021/08/31 02:12:58;;;;;;;17.15;8.10;;;;;;;12.49;100.00;101796.88;5068789;28;20102;-71
2021/08/31 02:15:23;;;;;;;16.00;8.93;;;;;;;12.56;100.00;101803.31;5068286;28;20052;-71
2021/08/31 02:17:48;;;;;;;19.20;9.63;;;;;;;12.57;100.00;101805.03;5068506;28;20051;-71
2021/08/31 02:20:15;;;;;;;15.23;9.60;;;;;;;12.47;100.00;101806.88;5050986;28;20107;-71
2021/08/31 02:22:40;;;;;;;20.33;9.60;;;;;;;12.47;100.00;101806.88;5050946;28;20043;-71
2021/08/31 02:25:07;;;;;;;15.55;8.93;;;;;;;12.29;100.00;101808.66;5068385;28;20400;-71
2021/08/31 02:27:32;;;;;;;21.90;10.57;;;;;;;12.52;100.00;101806.44;5050558;28;20029;-71
2021/08/31 02:29:58;;;;;;;17.63;9.40;;;;;;;12.56;100.00;101805.16;5067699;28;20463;-71
2021/08/31 02:32:23;;;;;;;20.83;10.00;;;;;;;12.66;100.00;101808.59;5034100;28;20040;-71
2021/08/31 02:34:48;;;;;;;23.87;11.27;;;;;;;12.63;100.00;101806.25;5067952;28;20036;-71
2021/08/31 02:37:14;;;;;;;19.70;10.00;;;;;;;12.57;100.00;101805.03;5066676;28;20287;-71
2021/08/31 02:39:39;;;;;;;15.30;10.13;;;;;;;12.50;100.00;101803.91;5067525;28;20040;-71
2021/08/31 02:42:05;;;;;;;19.53;11.37;;;;;;;12.52;100.00;101801.91;5068268;28;20052;-71
2021/08/31 02:44:30;;;;;;;23.27;11.33;;;;;;;12.43;100.00;101797.44;5067395;28;20032;-71
2021/08/31 02:46:56;;;;;;;20.73;11.83;;;;;;;12.51;100.00;101802.94;5067880;28;20098;-71
2021/08/31 02:49:21;;;;;;;22.27;11.17;;;;;;;12.66;100.00;101803.25;5050836;28;20032;-71
2021/08/31 02:51:46;;;;;;;23.83;10.87;;;;;;;12.60;100.00;101804.72;5067035;28;20037;-71
2021/08/31 02:54:12;;;;;;;19.50;9.43;;;;;;;12.56;100.00;101806.00;5050348;28;20036;-71
2021/08/31 02:56:37;;;;;;;17.17;9.57;;;;;;;12.55;100.00;101807.00;5068062;28;20051;-71
2021/08/31 02:59:02;;;;;;;25.33;10.80;;;;;;;12.50;100.00;101803.91;5068102;28;20230;-71
2021/08/31 03:01:31;;;;;;;20.80;10.60;;;;;;;12.48;100.00;101800.56;5067409;28;20055;-71
2021/08/31 03:03:57;;;;;;;18.92;10.07;;;;;;;12.42;100.00;101801.13;5050251;28;20082;-71
2021/08/31 03:06:24;;;;;;;24.67;11.25;;;;;;;12.36;100.00;101799.03;5067016;28;20457;-71
2021/08/31 03:08:49;;;;;;;18.80;10.23;;;;;;;12.26;100.00;101801.78;5067903;28;20024;-71
2021/08/31 03:11:15;;;;;;;23.87;10.27;;;;;;;12.22;100.00;101801.25;5068160;28;20039;-71
2021/08/31 03:13:40;;;;;;;22.77;11.47;;;;;;;12.22;100.00;101801.25;5050220;28;20062;-71
2021/08/31 03:16:05;;;;;;;22.67;11.63;;;;;;;12.18;100.00;101799.84;5066697;28;20091;-71
2021/08/31 03:18:31;;;;;;;18.98;10.20;;;;;;;12.16;100.00;101795.63;5067731;28;20025;-71
2021/08/31 03:20:57;;;;;;;20.67;11.37;;;;;;;12.11;100.00;101804.09;5068199;28;20036;-71
2021/08/31 03:23:22;;;;;;;23.87;12.10;;;;;;;12.06;100.00;101797.47;5067838;28;20055;-71
2021/08/31 03:25:47;;;;;;;24.43;11.03;;;;;;;12.00;100.00;101789.06;5067475;28;20043;-71
2021/08/31 03:28:13;;;;;;;23.83;11.27;;;;;;;11.94;100.00;101794.13;5068106;28;20066;-71
2021/08/31 03:30:39;;;;;;;16.70;9.70;;;;;;;11.83;100.00;101790.63;5050272;28;20064;-71
2021/08/31 03:33:04;;;;;;;22.48;12.15;;;;;;;11.80;100.00;101792.78;5067898;28;20041;-71
2021/08/31 03:35:29;;;;;;;22.77;12.80;;;;;;;11.93;100.00;101789.78;5067624;28;20086;-71
2021/08/31 03:37:55;;;;;;;33.07;14.57;;;;;;;12.06;100.00;101789.44;5067741;28;20043;-71
2021/08/31 03:40:20;;;;;;;23.80;12.30;;;;;;;12.15;100.00;101791.25;5066949;28;20512;-71
2021/08/31 03:42:47;;;;;;;19.97;11.87;;;;;;;12.08;100.00;101801.72;5067921;28;20479;-71
2021/08/31 03:45:13;;;;;;;29.08;12.75;;;;;;;12.06;100.00;101805.50;5067652;28;20032;-71
2021/08/31 03:47:38;;;;;;;26.13;13.30;;;;;;;12.08;100.00;101804.41;5068353;28;20036;-71
2021/08/31 03:50:04;;;;;;;22.33;14.27;;;;;;;12.17;100.00;101808.00;5070599;28;20021;-71
2021/08/31 03:52:30;;;;;;;33.45;13.23;;;;;;;12.11;100.00;101806.78;5071009;28;20036;-71
2021/08/31 03:54:55;;;;;;;41.80;14.17;;;;;;;12.26;100.00;101804.44;5071534;28;20037;-71
2021/08/31 03:57:20;;;;;;;25.13;13.63;;;;;;;12.23;100.00;101818.97;5037172;28;20116;-71
2021/08/31 03:59:46;;;;;;;27.73;13.20;;;;;;;12.22;100.00;101821.78;5071648;28;20116;-71
2021/08/31 04:02:11;;;;;;;31.03;15.33;;;;;;;12.41;100.00;101820.88;5071126;28;20127;-71
2021/08/31 04:04:36;;;;;;;28.97;16.00;;;;;;;12.57;100.00;101820.22;5071407;28;20052;-71
2021/08/31 04:07:02;;;;;;;27.80;15.13;;;;;;;12.50;100.00;101814.63;5070893;28;20121;-71
2021/08/31 04:09:27;;;;;;;31.87;14.73;;;;;;;12.46;100.00;101827.47;5071498;28;20055;-71
2021/08/31 04:11:52;;;;;;;32.87;15.20;;;;;;;12.44;100.00;101823.25;5070907;28;20045;-71
2021/08/31 04:14:18;;;;;;;41.90;17.37;;;;;;;12.44;100.00;101828.63;5070160;28;20036;-71
2021/08/31 04:16:43;;;;;;;28.37;13.67;;;;;;;12.45;100.00;101833.84;5053142;28;20527;-71
2021/08/31 04:19:08;;;;;;;33.67;14.10;;;;;;;12.45;100.00;101819.56;5053720;28;20028;-71
2021/08/31 04:21:34;;;;;;;29.47;16.00;;;;;;;12.54;100.00;101821.38;5070779;28;20424;-70
2021/08/31 04:23:59;;;;;;;45.00;15.10;;;;;;;12.55;100.00;101828.44;5053312;28;20453;-70
2021/08/31 04:26:24;;;;;;;35.23;16.10;;;;;;;12.47;100.00;101831.00;5070398;28;20058;-69
2021/08/31 04:28:50;;;;;;;30.97;15.50;;;;;;;12.49;100.00;101841.56;5071131;28;20093;-70
2021/08/31 04:31:15;;;;;;;32.77;14.37;;;;;;;12.41;100.00;101835.13;5070974;28;20036;-69
2021/08/31 04:33:41;;;;;;;32.80;14.03;;;;;;;12.36;100.00;101839.22;5070749;28;20028;-69
2021/08/31 04:36:06;;;;;;;28.93;14.13;;;;;;;12.36;100.00;101834.72;5070457;28;20035;-70
2021/08/31 04:38:31;;;;;;;40.67;16.13;;;;;;;12.45;100.00;101841.88;5069715;28;20816;-70
2021/08/31 04:40:56;;;;;;;37.33;16.33;;;;;;;12.54;100.00;101834.75;5070772;28;20401;-70
2021/08/31 04:43:22;;;;;;;31.53;14.23;;;;;;;12.59;100.00;101834.31;5069622;28;20075;-70
2021/08/31 04:45:47;;;;;;;35.73;16.60;;;;;;;12.61;100.00;101833.16;5053021;28;20076;-70
2021/08/31 04:48:13;;;;;;;31.10;16.30;;;;;;;12.58;100.00;101838.00;5070484;28;20084;-70
2021/08/31 04:50:38;;;;;;;42.20;16.90;;;;;;;12.76;100.00;101841.56;5070696;28;20040;-70
2021/08/31 04:53:03;;;;;;;34.27;16.37;;;;;;;12.79;100.00;101837.75;5070236;28;20056;-70
2021/08/31 04:55:29;;;;;;;37.30;17.57;;;;;;;12.74;100.00;101840.03;5052726;28;20044;-70
2021/08/31 04:57:54;;;;;;;44.10;18.23;;;;;;;12.80;100.00;101847.44;5069670;28;20044;-70
2021/08/31 05:00:20;;;;;;;35.83;17.97;;;;;;;12.86;100.00;101849.53;5070172;28;20431;-70
2021/08/31 05:02:45;;;;;;;40.13;17.10;;;;;;;12.86;100.00;101846.88;5069141;28;20041;-70
2021/08/31 05:05:10;;;;;;;33.40;16.97;;;;;;;12.85;100.00;101845.16;5070051;28;20111;-70
2021/08/31 05:07:38;;;;;;;37.93;16.80;;;;;;;12.99;100.00;101847.31;5070021;28;20039;-70
2021/08/31 05:10:05;;;;;;;34.35;17.60;;;;;;;12.98;100.00;101851.00;5069804;28;20050;-70
2021/08/31 05:12:31;;;;;;;37.97;16.77;;;;;;;13.00;100.00;101842.81;5052327;28;20048;-70
2021/08/31 05:14:56;;;;;;;35.53;16.17;;;;;;;13.10;100.00;101852.47;5068661;28;20484;-70
2021/08/31 05:17:21;;;;;;;48.03;18.00;;;;;;;13.20;100.00;101854.25;5069713;28;20556;-70
2021/08/31 05:19:47;;;;;;;39.50;17.10;;;;;;;13.24;100.00;101852.94;5052041;28;20469;-70
2021/08/31 05:22:12;;;;;;;39.63;15.57;;;;;;;13.33;100.00;101857.41;5069695;28;20050;-70
2021/08/31 05:24:38;;;;;;;26.17;13.53;;;;;;;13.39;100.00;101861.31;5069380;28;20183;-70
2021/08/31 05:27:04;;;;;;;34.60;15.70;;;;;;;13.43;100.00;101860.03;5068479;28;20460;-70
2021/08/31 05:29:29;;;;;;;30.67;16.25;;;;;;;13.40;100.00;101854.97;5052032;28;20406;-70
2021/08/31 05:31:54;;;;;;;30.70;15.90;;;;;;;13.54;100.00;101861.63;5069548;28;20024;-70
2021/08/31 05:34:20;;;;;;;31.50;16.00;;;;;;;13.62;100.00;101859.84;5068280;28;20115;-71
2021/08/31 05:36:45;;;;;;;33.17;14.33;;;;;;;13.67;100.00;101856.69;5069184;28;20118;-70
2021/08/31 05:39:11;;;;;;;27.58;13.43;;;;;;;13.73;100.00;101862.28;5069528;28;20028;-70
2021/08/31 05:41:37;;;;;;;26.43;13.43;;;;;;;13.76;100.00;101866.50;5051496;28;20040;-70
2021/08/31 05:44:02;;;;;;;27.40;14.48;;;;;;;13.78;100.00;101863.66;5069262;28;20037;-70
2021/08/31 05:46:28;;;;;;;36.73;13.23;;;;;;;14.58;100.00;101861.63;5051323;28;20060;-70
2021/08/31 05:48:53;;;;;;;21.17;11.32;;;;;;;15.46;100.00;101866.56;5069365;28;20123;-70
2021/08/31 05:51:18;;;;;;;18.73;10.13;;;;;;;16.33;100.00;101868.69;5068629;28;20115;-70
2021/08/31 05:53:45;;;;;;;19.67;9.07;;;;;;;17.20;100.00;101860.53;5051673;28;20040;-70
2021/08/31 05:56:10;;;;;;;16.65;8.85;;;;;;;17.65;95.18;101854.28;5050977;28;20373;-70
2021/08/31 05:58:35;;;;;;;13.13;6.90;;;;;;;18.20;89.74;101862.22;5051548;28;20024;-70
2021/08/31 06:01:01;;;;;;;14.27;6.83;;;;;;;18.62;89.42;101858.84;5068894;28;20048;-70
2021/08/31 06:03:26;;;;;;;13.90;5.83;;;;;;;19.05;86.19;101861.66;5068802;28;20033;-70
2021/08/31 06:05:51;;;;;;;13.87;6.30;;;;;;;19.46;83.92;101863.75;5068349;28;20454;-70
2021/08/31 06:08:17;;;;;;;12.27;6.27;;;;;;;19.86;80.08;101868.69;5068977;28;20103;-70
2021/08/31 06:10:42;;;;;;;15.97;6.93;;;;;;;20.58;77.24;101860.19;5068133;28;20040;-70
2021/08/31 06:13:08;;;;;;;9.63;5.88;;;;;;;19.84;79.53;101862.63;5051081;28;20770;-70
2021/08/31 06:15:34;;;;;;;10.45;6.60;;;;;;;20.52;76.51;101865.56;5051145;28;20032;-71
2021/08/31 06:17:59;;;;;;;9.93;5.87;;;;;;;20.99;75.65;101863.88;5067157;28;20071;-71
2021/08/31 06:20:24;;;;;;;16.70;6.90;;;;;;;20.32;75.90;101868.16;5068666;28;20040;-70
2021/08/31 06:22:50;;;;;;;11.73;6.50;;;;;;;20.04;77.97;101871.72;5068419;28;20273;-70
2021/08/31 06:25:15;;;;;;;15.33;5.63;;;;;;;20.69;75.82;101871.50;5068482;28;20097;-70
2021/08/31 06:27:41;;;;;;;12.88;5.82;;;;;;;20.79;75.87;101878.22;5068168;28;20033;-71
2021/08/31 06:30:07;;;;;;;10.83;5.90;;;;;;;20.69;75.48;101876.91;5068619;28;20064;-70
2021/08/31 06:32:32;;;;;;;12.68;5.15;;;;;;;20.78;74.25;101875.72;5050680;28;20036;-70
2021/08/31 06:34:57;;;;;;;12.13;6.60;;;;;;;20.69;74.20;101882.34;5068311;28;20040;-70
2021/08/31 06:37:23;;;;;;;13.47;6.20;;;;;;;20.58;75.68;101883.75;5066784;28;20029;-71
2021/08/31 06:39:48;;;;;;;10.23;5.70;;;;;;;20.58;75.84;101887.31;5067606;28;20283;-70
2021/08/31 06:42:14;;;;;;;9.27;5.33;;;;;;;20.95;75.56;101889.75;5068225;28;20060;-70
2021/08/31 06:44:39;;;;;;;14.00;6.30;;;;;;;20.83;74.60;101887.63;5050696;28;20053;-71
2021/08/31 06:47:05;;;;;;;8.87;5.17;;;;;;;20.61;75.93;101886.91;5033929;28;20025;-71
2021/08/31 06:49:34;;;;;;;9.10;5.80;;;;;;;21.03;73.46;101889.59;5067103;28;20044;-71
2021/08/31 06:52:00;;;;;;;10.35;5.68;;;;;;;20.36;74.82;101888.41;5068075;28;20090;-71
2021/08/31 06:54:26;;;;;;;;;;;;;;;20.23;75.89;101892.72;5068532;28;20127;-71
2021/08/31 06:56:51;;;;;;;11.45;6.65;;;;;;;20.07;76.84;101897.63;5050429;28;20007;-71
2021/08/31 06:59:16;;;;;;;12.10;5.57;;;;;;;20.37;77.52;101887.34;5068100;28;20035;-71
2021/08/31 07:01:42;;;;;;;10.37;5.70;;;;;;;20.81;75.51;101888.88;5068182;28;20040;-71
2021/08/31 07:04:07;;;;;;;8.80;5.60;;;;;;;20.36;75.73;101886.53;5050305;28;20097;-71
2021/08/31 07:06:32;;;;;;;13.67;5.30;;;;;;;20.58;77.28;101886.47;5068121;28;20384;-71
2021/08/31 07:08:59;;;;;;;11.07;4.77;;;;;;;20.69;75.03;101882.34;5068101;28;20365;-71
2021/08/31 07:11:24;;;;;;;;;;;;;;;20.82;74.94;101885.13;5068564;28;20157;-71
2021/08/31 07:13:49;;;;;;;13.77;5.60;;;;;;;20.76;75.19;101881.31;5067891;28;19931;-71
2021/08/31 07:16:15;;;;;;;9.10;5.57;;;;;;;20.53;75.50;101884.31;5050213;28;20084;-71
2021/08/31 07:18:40;;;;;;;11.43;5.43;;;;;;;20.16;75.90;101893.72;5066958;28;20032;-71
2021/08/31 07:21:06;;;;;;;10.73;5.47;;;;;;;20.02;76.18;101890.91;5068256;28;20112;-71
2021/08/31 07:23:31;;;;;;;10.60;5.18;;;;;;;19.64;78.03;101898.47;5054031;28;20033;-71
2021/08/31 07:25:56;;;;;;;8.50;4.90;;;;;;;20.19;76.29;101898.75;5071812;28;20051;-71
2021/08/31 07:28:22;;;;;;;7.07;5.83;;;;;;;20.32;75.39;101904.25;5054444;28;20032;-71
2021/08/31 07:30:47;;;;;;;9.57;5.50;;;;;;;20.30;76.04;101898.19;5070881;28;20036;-71
2021/08/31 07:33:12;;;;;;;11.17;4.73;;;;;;;20.78;75.25;101897.41;5070837;28;20036;-71
2021/08/31 07:35:38;;;;;;;10.33;5.63;;;;;;;21.03;73.83;101909.41;5071734;28;20270;-71
2021/08/31 07:38:05;;;;;;;6.15;4.43;;;;;;;21.38;72.38;101914.75;5071473;28;20043;-71
2021/08/31 07:40:30;;;;;;;10.07;4.93;;;;;;;20.84;71.61;101910.19;5071722;28;20703;-71
2021/08/31 07:42:55;;;;;;;10.18;4.88;;;;;;;21.10;70.83;101903.19;5071671;28;20039;-72
2021/08/31 07:45:21;;;;;;;6.53;4.67;;;;;;;21.27;71.89;101909.91;5071399;28;20139;-72
2021/08/31 07:47:47;;;;;;;8.30;4.80;;;;;;;21.83;71.19;101901.44;5071363;28;20098;-72
2021/08/31 07:50:12;;;;;;;;;;;;;;;21.29;67.79;101907.81;5071967;28;20036;-71
2021/08/31 07:52:38;;;;;;;8.52;4.80;;;;;;;21.45;69.96;101902.03;5071227;28;20248;-71
2021/08/31 07:55:06;;;;;;;6.22;4.60;;;;;;;21.65;68.77;101907.47;5070268;28;20037;-72
2021/08/31 07:57:32;;;;;;;7.15;4.88;;;;;;;21.88;68.22;101904.34;5053676;28;20068;-72
2021/08/31 07:59:57;;;;;;;9.60;5.20;;;;;;;21.63;67.32;101903.28;5053908;28;20052;-71
2021/08/31 08:02:23;;;;;;;5.05;4.07;;;;;;;21.43;67.68;101904.13;5070351;28;20428;-71
2021/08/31 08:04:49;;;;;;;9.30;4.78;;;;;;;21.65;67.16;101902.03;5071118;28;20032;-72
2021/08/31 08:07:15;;;;;;;7.07;4.47;;;;;;;21.38;67.40;101920.16;5036781;28;20031;-72
2021/08/31 08:09:40;;;;;;;8.13;4.23;;;;;;;21.65;66.55;101912.91;5053569;28;20040;-71
2021/08/31 08:12:06;;;;;;;7.80;4.93;;;;;;;22.17;63.75;101913.09;5071115;28;20139;-72
2021/08/31 08:14:31;;;;;;;7.00;5.13;;;;;;;21.90;65.84;101920.47;5053383;28;20032;-71
2021/08/31 08:16:57;;;;;;;9.50;4.93;;;;;;;22.33;62.90;101928.19;5070663;28;20449;-71
2021/08/31 08:19:22;;;;;;;7.87;4.43;;;;;;;22.52;63.47;101921.03;5071152;28;20043;-71
2021/08/31 08:21:47;;;;;;;14.70;5.87;;;;;;;22.82;62.49;101925.94;5036582;28;20090;-71
2021/08/31 08:24:13;;;;;;;6.03;4.83;;;;;;;21.59;64.77;101924.63;5070718;28;20044;-71
2021/08/31 08:26:38;;;;;;;8.93;4.33;;;;;;;22.47;63.80;101929.81;5070638;28;20040;-71
2021/08/31 08:29:04;;;;;;;7.17;4.80;;;;;;;23.14;60.42;101918.72;5053135;28;20471;-72
2021/08/31 08:31:33;;;;;;;8.00;4.38;;;;;;;23.26;62.87;101924.31;5070605;28;20032;-72
2021/08/31 08:34:00;;;;;;;7.93;3.45;;;;;;;23.72;61.77;101931.34;5069922;28;20160;-72
2021/08/31 08:36:26;;;;;;;6.07;3.63;;;;;;;23.77;59.70;101929.66;5052675;28;20021;-72
2021/08/31 08:38:51;;;;;;;6.30;3.90;;;;;;;23.92;58.08;101926.59;5070527;28;20484;-72
2021/08/31 08:41:16;;;;;;;5.70;4.10;;;;;;;24.35;57.60;101928.50;5070505;28;20317;-72
2021/08/31 08:43:42;;;;;;;6.73;4.20;;;;;;;24.66;57.50;101934.91;5070577;28;20033;-72
2021/08/31 08:46:08;;;;;;;6.88;3.88;;;;;;;24.61;57.87;101935.59;5052257;28;20040;-72
2021/08/31 08:48:33;;;;;;;6.93;4.00;;;;;;;24.05;59.80;101936.56;5070604;28;20059;-72
2021/08/31 08:51:01;;;;;;;5.43;4.00;;;;;;;24.23;57.85;101930.28;5052797;28;20032;-72
2021/08/31 08:53:29;;;;;;;6.07;4.03;;;;;;;24.20;57.04;101928.00;5069052;28;20139;-72
2021/08/31 08:55:56;;;;;;;6.88;4.25;;;;;;;23.73;55.50;101931.09;5069950;28;20102;-72
2021/08/31 08:58:22;;;;;;;5.10;3.90;;;;;;;24.44;55.04;101937.22;5052580;28;20158;-71
2021/08/31 09:01:01;;;;;;;5.10;4.05;;;;;;;25.11;54.31;101934.56;5052696;28;20115;-71
2021/08/31 09:03:28;;;;;;;6.53;4.47;;;;;;;25.25;52.76;101944.25;5052313;28;20086;-72
2021/08/31 09:06:12;;;;;;;6.05;4.28;;;;;;;24.12;54.75;101931.03;5068752;28;20036;-72
2021/08/31 09:08:58;;;;;;;5.05;4.25;;;;;;;24.15;53.91;101936.03;5069097;28;20032;-71
2021/08/31 09:11:30;;;;;;;5.78;4.15;;;;;;;25.16;52.65;101945.63;5069107;28;20119;-71
2021/08/31 09:14:16;;;;;;;4.55;3.70;;;;;;;25.48;50.90;101937.22;5069959;28;20064;-71
2021/08/31 09:16:43;;;;;;;5.53;4.03;;;;;;;25.34;49.79;101941.22;5069479;28;20071;-71
2021/08/31 09:19:09;;;;;;;6.05;4.22;;;;;;;25.27;52.48;101947.59;5069932;28;20368;-71
2021/08/31 09:21:35;;;;;;;4.50;3.60;;;;;;;24.64;52.16;101940.59;5068858;28;20040;-72
2021/08/31 09:24:00;;;;;;;;;;;;;;;24.89;51.74;101950.59;5070069;28;20036;-72
2021/08/31 09:26:33;;;;;;;7.18;3.72;;;;;;;24.78;51.45;101948.63;5069344;28;19916;-71
2021/08/31 09:29:19;;;;;;;6.18;4.35;;;;;;;25.19;51.80;101949.81;5069456;28;20513;-72
2021/08/31 09:31:45;;;;;;;7.68;4.65;;;;;;;25.26;50.77;101948.69;5069562;28;20081;-72
2021/08/31 09:34:51;;;;;;;7.32;4.10;;;;;;;25.67;50.57;101957.13;5069392;28;20028;-72
2021/08/31 09:37:33;;;;;;;4.65;4.10;;;;;;;25.86;50.58;101945.06;5068801;28;20051;-71
2021/08/31 09:40:07;;;;;;;7.05;4.05;;;;;;;26.16;49.41;101944.13;5069725;28;20055;-71
2021/08/31 09:42:34;;;;;;;5.68;4.00;;;;;;;25.96;49.36;101955.41;5068505;28;20148;-72
2021/08/31 09:45:02;;;;;;;6.07;4.88;;;;;;;26.23;48.98;101944.84;5069265;28;20476;-72
2021/08/31 09:47:35;;;;;;;9.00;4.40;;;;;;;26.01;49.37;101947.34;5069243;28;20465;-71
2021/08/31 09:50:02;;;;;;;6.65;4.25;;;;;;;26.52;47.68;101950.41;5068341;28;20048;-71
2021/08/31 09:52:28;;;;;;;7.05;4.28;;;;;;;26.04;49.00;101951.50;5068371;28;20036;-71
2021/08/31 09:54:53;;;;;;;6.60;4.57;;;;;;;26.01;49.21;101946.50;5069088;28;20033;-71
2021/08/31 09:57:32;;;;;;;8.30;4.40;;;;;;;25.80;49.43;101947.84;5069022;28;20736;-71
2021/08/31 10:00:00;;;;;;;5.15;4.05;;;;;;;26.17;47.54;101943.03;5068070;28;20074;-72
2021/08/31 10:02:26;;;;;;;5.57;4.18;;;;;;;25.89;48.74;101943.75;5069090;28;20090;-72
2021/08/31 10:04:53;;;;;;;6.95;4.00;;;;;;;25.98;47.96;101945.06;5067988;28;20166;-72
2021/08/31 10:07:20;;;;;;;9.30;4.25;;;;;;;25.74;48.71;101946.09;5068953;28;20032;-71
2021/08/31 10:09:46;;;;;;;7.78;4.25;;;;;;;25.90;47.73;101939.97;5051712;28;20063;-71
2021/08/31 10:12:13;;;;;;;6.90;4.20;;;;;;;26.17;47.83;101954.00;5067986;28;20080;-71
2021/08/31 10:14:43;;;;;;;6.70;4.57;;;;;;;25.98;47.44;101946.97;5067506;28;20413;-71
2021/08/31 10:17:10;;;;;;;6.43;4.75;;;;;;;25.90;49.54;101954.47;5051096;28;20029;-71
2021/08/31 10:19:36;;;;;;;5.78;4.53;;;;;;;25.90;46.68;101942.69;5068811;28;20036;-71
2021/08/31 10:22:01;;;;;;;5.82;4.18;;;;;;;26.31;47.14;101940.91;5068838;28;20109;-71
2021/08/31 10:24:27;;;;;;;9.00;4.20;;;;;;;25.97;47.34;101934.38;5050935;28;20036;-71
2021/08/31 10:26:52;;;;;;;7.93;5.05;;;;;;;26.72;47.27;101941.84;5068693;28;20093;-71
2021/08/31 10:29:21;;;;;;;6.82;4.32;;;;;;;26.81;46.65;101951.34;5068497;28;20454;-71
2021/08/31 10:31:49;;;;;;;8.05;4.40;;;;;;;27.51;46.64;101949.41;5068590;28;20463;-71
2021/08/31 10:34:29;;;;;;;8.40;4.68;;;;;;;26.87;48.20;101941.31;5067668;28;20366;-71
2021/08/31 10:37:15;;;;;;;6.65;4.25;;;;;;;27.30;46.56;101949.06;5066866;28;20036;-71
2021/08/31 10:39:51;;;;;;;6.07;4.15;;;;;;;26.02;47.26;101943.53;5049245;28;20036;-71
2021/08/31 10:42:29;;;;;;;6.93;4.47;;;;;;;25.63;51.56;101953.19;5067077;28;20040;-71
2021/08/31 10:44:56;;;;;;;5.65;3.65;;;;;;;26.36;48.00;101957.44;5066656;28;20525;-71
2021/08/31 10:47:29;;;;;;;8.73;4.80;;;;;;;24.49;51.98;101950.22;5049266;28;20024;-71
2021/08/31 10:49:58;;;;;;;7.53;4.47;;;;;;;23.47;53.75;101951.22;5049333;28;20052;-71
2021/08/31 10:52:49;;;;;;;6.45;4.00;;;;;;;24.88;52.79;101959.03;5067373;28;20063;-71
2021/08/31 10:55:23;;;;;;;5.13;4.60;;;;;;;25.11;52.55;101964.59;5067966;28;20052;-71
2021/08/31 10:57:55;;;;;;;5.88;4.10;;;;;;;26.15;48.56;101963.50;5067931;28;20110;-71
2021/08/31 11:00:21;;;;;;;8.18;4.45;;;;;;;26.10;49.86;101951.38;5068350;28;20032;-71
2021/08/31 11:02:46;;;;;;;5.60;3.83;;;;;;;25.81;48.68;101957.75;5050791;28;20119;-71
2021/08/31 11:05:25;;;;;;;6.28;4.32;;;;;;;25.80;47.94;101967.00;5068241;28;20051;-71
2021/08/31 11:07:54;;;;;;;6.50;4.57;;;;;;;26.17;48.42;101951.25;5068172;28;20040;-71
2021/08/31 11:10:32;;;;;;;9.38;4.97;;;;;;;26.61;49.82;101964.59;5067452;28;20427;-71
2021/08/31 11:13:08;;;;;;;5.75;4.72;;;;;;;26.29;51.03;101960.31;5068186;28;20449;-71